Time;durP1;ratioP1;P1;durP2;ratioP2;P2;SDS_P1;SDS_P2;PMS_P1;PMS_P2;Temp;Humidity;BMP_temperature;BMP_pressure;BME280_temperature;BME280_humidity;BME280_pressure;Samples;Min_cycle;Max_cycle;Signal;HPM_P1;HPM_P2
2023/04/22 00:01:17;;;;;;;9.93;7.20;;;12.00;99.90;;;;;;5016019;28;20041;-84
2023/04/22 00:03:43;;;;;;;10.65;7.90;;;12.00;99.90;;;;;;4999627;28;20064;-84
2023/04/22 00:06:09;;;;;;;14.25;11.77;;;11.90;99.90;;;;;;4999666;28;20392;-86
2023/04/22 00:08:35;;;;;;;8.98;6.40;;;11.90;99.90;;;;;;5015647;28;20046;-83
2023/04/22 00:11:02;;;;;;;9.13;6.28;;;11.80;99.90;;;;;;5015514;28;20129;-83
2023/04/22 00:13:27;;;;;;;11.80;8.57;;;11.80;99.90;;;;;;5015818;28;20403;-82
2023/04/22 00:15:53;;;;;;;13.80;10.07;;;11.80;99.90;;;;;;5015910;28;20050;-83
2023/04/22 00:18:19;;;;;;;10.63;6.38;;;11.70;99.90;;;;;;5015646;28;20049;-83
2023/04/22 00:20:45;;;;;;;9.38;6.10;;;11.60;99.90;;;;;;4999243;28;20045;-84
2023/04/22 00:23:12;;;;;;;8.70;6.28;;;11.50;99.90;;;;;;5015610;28;20051;-83
2023/04/22 00:25:38;;;;;;;9.68;6.72;;;11.50;99.90;;;;;;5015480;28;20049;-83
2023/04/22 00:28:05;;;;;;;8.57;5.75;;;11.50;99.90;;;;;;4999828;28;20467;-82
2023/04/22 00:30:31;;;;;;;17.27;12.60;;;11.50;99.90;;;;;;5002373;28;20053;-82
2023/04/22 00:32:56;;;;;;;13.48;11.40;;;11.50;99.90;;;;;;5003251;28;20400;-81
2023/04/22 00:35:22;;;;;;;12.73;10.63;;;11.30;99.90;;;;;;5019250;28;20041;-81
2023/04/22 00:37:48;;;;;;;11.23;8.77;;;11.20;99.90;;;;;;5003335;28;20052;-81
2023/04/22 00:40:14;;;;;;;13.18;10.85;;;11.10;99.90;;;;;;5019375;28;20054;-82
2023/04/22 00:42:42;;;;;;;11.05;9.52;;;11.00;99.90;;;;;;4970875;28;20053;-83
2023/04/22 00:45:16;;;;;;;16.42;13.98;;;11.10;99.90;;;;;;5019381;28;20046;-85
2023/04/22 00:47:43;;;;;;;9.35;7.25;;;11.10;99.90;;;;;;5019048;28;20085;-83
2023/04/22 00:50:09;;;;;;;15.55;13.20;;;11.00;99.90;;;;;;5003089;28;20045;-82
2023/04/22 00:52:35;;;;;;;11.43;8.73;;;11.00;99.90;;;;;;5019084;28;20041;-82
2023/04/22 00:55:01;;;;;;;12.48;11.18;;;10.90;99.90;;;;;;5019213;28;20084;-82
2023/04/22 00:57:29;;;;;;;17.75;14.55;;;10.90;99.90;;;;;;5019013;28;20049;-82
2023/04/22 00:59:55;;;;;;;17.92;13.13;;;10.90;99.90;;;;;;5019361;28;20436;-81
2023/04/22 01:02:22;;;;;;;14.43;12.23;;;10.80;99.90;;;;;;5018887;28;20496;-81
2023/04/22 01:04:47;;;;;;;16.83;15.02;;;10.80;99.90;;;;;;5018790;28;20046;-82
2023/04/22 01:07:13;;;;;;;18.60;16.60;;;10.80;99.90;;;;;;5002654;28;20044;-83
2023/04/22 01:09:40;;;;;;;20.50;16.48;;;10.70;99.90;;;;;;5018230;28;20045;-83
2023/04/22 01:12:06;;;;;;;16.20;14.32;;;10.70;99.90;;;;;;5035459;28;20132;-83
2023/04/22 01:14:32;;;;;;;16.40;14.70;;;10.70;99.90;;;;;;5018865;28;20556;-83
2023/04/22 01:16:58;;;;;;;19.30;17.13;;;10.70;99.90;;;;;;5002394;28;20053;-83
2023/04/22 01:19:24;;;;;;;13.60;11.95;;;10.60;99.90;;;;;;5018888;28;20055;-82
2023/04/22 01:21:50;;;;;;;12.60;10.63;;;10.60;99.90;;;;;;5018125;28;20515;-82
2023/04/22 01:24:16;;;;;;;16.35;13.25;;;10.60;99.90;;;;;;5018092;28;20125;-83
2023/04/22 01:26:42;;;;;;;16.38;13.73;;;10.50;99.90;;;;;;5018409;28;20045;-82
2023/04/22 01:29:08;;;;;;;14.18;11.75;;;10.60;99.90;;;;;;5018389;28;20052;-83
2023/04/22 01:31:34;;;;;;;14.30;12.45;;;10.50;99.90;;;;;;4999652;28;20057;-82
2023/04/22 01:34:00;;;;;;;11.15;8.65;;;10.60;99.90;;;;;;4998844;28;20497;-82
2023/04/22 01:36:27;;;;;;;13.68;11.00;;;10.50;99.90;;;;;;4998544;28;20397;-82
2023/04/22 01:38:53;;;;;;;12.25;10.73;;;10.50;99.90;;;;;;4998754;28;20184;-83
2023/04/22 01:41:19;;;;;;;10.00;7.85;;;10.40;99.90;;;;;;4981742;28;20057;-82
2023/04/22 01:43:45;;;;;;;9.77;7.38;;;10.40;99.90;;;;;;4998742;28;20045;-82
2023/04/22 01:46:11;;;;;;;9.80;7.07;;;10.50;99.90;;;;;;4998613;28;20076;-82
2023/04/22 01:48:37;;;;;;;9.50;6.95;;;10.50;99.90;;;;;;4982220;28;20425;-81
2023/04/22 01:51:03;;;;;;;10.23;7.10;;;10.60;99.90;;;;;;4998191;28;20375;-80
2023/04/22 01:53:29;;;;;;;9.02;7.03;;;10.60;99.90;;;;;;4998508;28;20052;-81
2023/04/22 01:55:55;;;;;;;9.10;6.88;;;10.60;99.90;;;;;;4982148;28;20124;-83
2023/04/22 01:58:20;;;;;;;8.82;7.40;;;10.70;99.90;;;;;;4998289;28;20393;-81
2023/04/22 02:00:46;;;;;;;9.95;7.95;;;10.70;99.90;;;;;;4982089;28;20111;-80
2023/04/22 02:03:12;;;;;;;15.38;12.32;;;10.60;99.90;;;;;;4982120;28;20064;-80
2023/04/22 02:05:39;;;;;;;13.13;11.63;;;10.50;99.90;;;;;;4998002;28;20042;-81
2023/04/22 02:08:05;;;;;;;17.00;13.90;;;10.40;99.90;;;;;;4998117;28;20049;-83
2023/04/22 02:10:30;;;;;;;15.40;13.40;;;10.30;99.90;;;;;;4998122;28;20046;-83
2023/04/22 02:12:56;;;;;;;14.43;12.75;;;10.20;99.90;;;;;;4998120;28;20474;-80
2023/04/22 02:15:22;;;;;;;17.88;15.98;;;10.10;99.90;;;;;;4981908;28;20054;-80
2023/04/22 02:17:49;;;;;;;14.77;12.40;;;10.00;99.90;;;;;;4981679;28;20060;-81
2023/04/22 02:20:15;;;;;;;13.82;11.63;;;9.90;99.90;;;;;;4997518;28;20153;-83
2023/04/22 02:22:42;;;;;;;14.35;12.75;;;9.90;99.90;;;;;;4981811;28;20482;-82
2023/04/22 02:25:09;;;;;;;15.75;14.13;;;9.90;99.90;;;;;;4997876;28;20444;-84
2023/04/22 02:27:35;;;;;;;17.83;15.32;;;9.90;99.90;;;;;;4998093;28;20389;-83
2023/04/22 02:30:02;;;;;;;16.90;15.10;;;9.90;99.90;;;;;;4981240;28;20053;-83
2023/04/22 02:32:28;;;;;;;16.90;15.18;;;10.00;99.90;;;;;;4997625;28;20050;-81
2023/04/22 02:34:54;;;;;;;16.63;14.90;;;10.00;99.90;;;;;;4997735;28;20497;-84
2023/04/22 02:37:21;;;;;;;15.75;14.15;;;9.90;99.90;;;;;;4981363;28;20056;-81
2023/04/22 02:39:48;;;;;;;18.15;16.25;;;9.90;99.90;;;;;;4997754;28;20108;-84
2023/04/22 02:42:14;;;;;;;14.70;12.73;;;9.90;99.90;;;;;;4981471;28;20049;-83
2023/04/22 02:44:40;;;;;;;18.63;16.63;;;9.80;99.90;;;;;;4965249;28;20054;-82
2023/04/22 02:47:06;;;;;;;22.70;19.85;;;9.80;99.90;;;;;;4965098;28;20141;-83
2023/04/22 02:49:32;;;;;;;18.52;16.63;;;9.80;99.90;;;;;;4997460;28;20049;-83
2023/04/22 02:51:58;;;;;;;17.17;14.75;;;9.80;99.90;;;;;;4997495;28;20383;-83
2023/04/22 02:54:23;;;;;;;13.32;10.50;;;9.70;99.90;;;;;;4997362;28;20478;-83
2023/04/22 02:56:49;;;;;;;11.95;9.75;;;9.70;99.90;;;;;;4997143;28;20049;-83
2023/04/22 02:59:15;;;;;;;14.10;12.60;;;9.70;99.90;;;;;;4997175;28;20101;-83
2023/04/22 03:01:41;;;;;;;13.40;11.65;;;9.70;99.90;;;;;;4996926;28;20054;-80
2023/04/22 03:04:07;;;;;;;27.35;22.48;;;9.70;99.90;;;;;;4980895;28;20167;-79
2023/04/22 03:06:32;;;;;;;14.68;12.10;;;9.70;99.90;;;;;;4997109;28;20135;-80
2023/04/22 03:08:58;;;;;;;12.68;10.07;;;9.60;99.90;;;;;;4996569;28;20093;-80
2023/04/22 03:11:24;;;;;;;10.27;8.68;;;9.60;99.90;;;;;;4980575;28;20050;-82
2023/04/22 03:13:50;;;;;;;11.02;9.07;;;9.60;99.90;;;;;;4980975;28;20050;-82
2023/04/22 03:16:16;;;;;;;10.10;8.48;;;9.50;99.90;;;;;;4996774;28;20132;-79
2023/04/22 03:18:42;;;;;;;9.38;7.85;;;9.60;99.90;;;;;;4996601;28;20504;-80
2023/04/22 03:21:08;;;;;;;9.30;7.50;;;9.60;99.90;;;;;;4980704;28;20054;-80
2023/04/22 03:23:34;;;;;;;9.02;7.20;;;9.60;99.90;;;;;;4996689;28;20068;-82
2023/04/22 03:26:00;;;;;;;9.90;7.72;;;9.60;99.90;;;;;;4996545;28;20053;-80
2023/04/22 03:28:25;;;;;;;11.50;9.50;;;9.60;99.90;;;;;;4996543;28;20104;-80
2023/04/22 03:30:51;;;;;;;9.43;7.75;;;9.60;99.90;;;;;;4998165;28;20149;-81
2023/04/22 03:33:17;;;;;;;9.50;7.88;;;9.60;99.90;;;;;;4979797;28;20132;-81
2023/04/22 03:35:43;;;;;;;9.93;8.40;;;9.60;99.90;;;;;;4980453;28;20162;-80
2023/04/22 03:38:09;;;;;;;8.88;7.40;;;9.60;99.90;;;;;;4980409;28;20077;-80
2023/04/22 03:40:34;;;;;;;8.70;7.15;;;9.70;99.90;;;;;;4996605;28;20137;-80
2023/04/22 03:43:02;;;;;;;10.55;8.65;;;9.60;99.90;;;;;;4996536;28;20045;-81
2023/04/22 03:45:28;;;;;;;10.13;7.35;;;9.70;99.90;;;;;;4980348;28;20053;-83
2023/04/22 03:47:53;;;;;;;7.68;6.53;;;9.60;99.90;;;;;;4996077;28;20072;-81
2023/04/22 03:50:19;;;;;;;8.57;6.28;;;9.60;99.90;;;;;;4980337;28;20137;-81
2023/04/22 03:52:45;;;;;;;41.13;7.40;;;9.50;99.90;;;;;;4996342;28;20394;-79
2023/04/22 03:55:10;;;;;;;59.45;9.30;;;9.50;99.90;;;;;;4995795;28;20568;-82
2023/04/22 03:57:36;;;;;;;11.35;10.15;;;9.30;99.90;;;;;;4996450;28;20057;-82
2023/04/22 04:00:02;;;;;;;16.23;14.55;;;9.30;99.90;;;;;;4964120;28;20054;-83
2023/04/22 04:02:28;;;;;;;19.75;17.58;;;9.40;99.90;;;;;;4996264;28;20124;-83
2023/04/22 04:04:54;;;;;;;21.20;19.00;;;9.60;99.90;;;;;;4995888;28;20450;-83
2023/04/22 04:07:19;;;;;;;23.23;20.92;;;9.50;99.90;;;;;;4996275;28;20042;-83
2023/04/22 04:09:45;;;;;;;23.30;20.80;;;9.40;99.90;;;;;;4995740;28;20478;-83
2023/04/22 04:12:11;;;;;;;23.38;20.98;;;9.40;99.90;;;;;;4980018;28;20085;-83
2023/04/22 04:14:37;;;;;;;23.63;21.13;;;9.50;99.90;;;;;;4963801;28;20045;-83
2023/04/22 04:17:02;;;;;;;24.00;21.52;;;9.60;99.90;;;;;;4963685;28;20057;-83
2023/04/22 04:19:28;;;;;;;21.98;19.63;;;9.70;99.90;;;;;;4979995;28;20056;-83
2023/04/22 04:21:54;;;;;;;20.85;18.67;;;9.70;99.90;;;;;;4980069;28;20052;-83
2023/04/22 04:24:20;;;;;;;21.05;18.02;;;9.70;99.90;;;;;;4964044;28;20111;-82
2023/04/22 04:26:47;;;;;;;18.80;16.88;;;9.70;99.90;;;;;;4964035;28;20405;-83
2023/04/22 04:29:13;;;;;;;18.65;16.58;;;9.70;99.90;;;;;;4980221;28;20050;-83
2023/04/22 04:31:39;;;;;;;18.92;16.20;;;9.70;99.90;;;;;;4979472;28;20065;-82
2023/04/22 04:34:06;;;;;;;17.85;15.95;;;9.70;99.90;;;;;;4996004;28;20497;-83
2023/04/22 04:36:32;;;;;;;16.38;14.57;;;9.70;99.90;;;;;;4979845;28;20061;-83
2023/04/22 04:39:01;;;;;;;15.25;13.63;;;9.70;99.90;;;;;;4996028;28;20050;-83
2023/04/22 04:41:28;;;;;;;15.95;13.80;;;9.70;99.90;;;;;;4980292;28;20456;-84
2023/04/22 04:43:55;;;;;;;16.25;14.20;;;9.80;99.90;;;;;;4995792;28;20072;-83
2023/04/22 04:46:21;;;;;;;15.18;13.57;;;9.70;99.90;;;;;;4995966;28;20046;-84
2023/04/22 04:48:47;;;;;;;15.57;13.50;;;9.70;99.90;;;;;;4979848;28;20069;-83
2023/04/22 04:51:13;;;;;;;15.18;13.00;;;10.00;99.90;;;;;;4995589;28;20526;-83
2023/04/22 04:53:40;;;;;;;16.63;13.63;;;9.80;99.90;;;;;;4995869;28;20054;-85
2023/04/22 04:56:05;;;;;;;15.82;13.27;;;9.90;99.90;;;;;;4995922;28;20046;-81
2023/04/22 04:58:31;;;;;;;14.65;13.15;;;9.90;99.90;;;;;;4979374;28;20104;-82
2023/04/22 05:00:57;;;;;;;15.60;13.20;;;9.90;99.90;;;;;;4979710;28;20061;-82
2023/04/22 05:03:22;;;;;;;17.00;13.55;;;10.00;99.90;;;;;;4995842;28;20474;-83
2023/04/22 05:05:48;;;;;;;15.65;13.52;;;10.00;99.90;;;;;;4995470;28;20054;-83
2023/04/22 05:08:14;;;;;;;16.15;13.82;;;10.00;99.90;;;;;;4995735;28;20045;-83
2023/04/22 05:10:41;;;;;;;15.70;13.90;;;10.00;99.90;;;;;;4995577;28;20041;-83
2023/04/22 05:13:07;;;;;;;16.40;14.70;;;10.00;99.90;;;;;;4995765;28;20060;-83
2023/04/22 05:15:33;;;;;;;18.73;14.90;;;10.00;99.90;;;;;;4995994;28;20398;-83
2023/04/22 05:17:58;;;;;;;17.30;15.02;;;9.90;99.90;;;;;;4999157;28;20061;-83
2023/04/22 05:20:25;;;;;;;17.15;15.25;;;10.00;99.90;;;;;;4998981;28;20064;-83
2023/04/22 05:22:50;;;;;;;18.00;15.40;;;10.00;99.90;;;;;;4999250;28;20124;-82
2023/04/22 05:25:16;;;;;;;18.33;15.07;;;10.00;99.90;;;;;;4998786;28;20134;-82
2023/04/22 05:27:42;;;;;;;18.23;15.10;;;10.00;99.90;;;;;;4982826;28;20442;-83
2023/04/22 05:30:08;;;;;;;18.23;16.20;;;10.00;99.90;;;;;;4998720;28;20189;-83
2023/04/22 05:32:34;;;;;;;17.85;15.80;;;10.00;99.90;;;;;;4982744;28;20065;-83
2023/04/22 05:35:00;;;;;;;17.52;15.50;;;10.10;99.90;;;;;;4982460;28;20050;-82
2023/04/22 05:37:25;;;;;;;18.02;15.95;;;10.10;99.90;;;;;;4998426;28;20046;-83
2023/04/22 05:39:51;;;;;;;18.80;15.05;;;10.10;99.90;;;;;;4982502;28;20086;-83
2023/04/22 05:42:18;;;;;;;18.23;16.00;;;10.20;99.90;;;;;;4998795;28;20477;-84
2023/04/22 05:44:43;;;;;;;17.25;14.50;;;10.30;99.90;;;;;;4998498;28;20489;-83
2023/04/22 05:47:09;;;;;;;17.08;15.13;;;10.30;99.90;;;;;;4982190;28;20049;-83
2023/04/22 05:49:35;;;;;;;18.45;15.25;;;10.40;99.90;;;;;;4982407;28;20050;-83
2023/04/22 05:52:01;;;;;;;16.65;14.65;;;10.40;99.90;;;;;;4998564;28;20050;-83
2023/04/22 05:54:28;;;;;;;17.15;15.35;;;10.50;99.90;;;;;;5014847;28;20050;-84
2023/04/22 05:56:54;;;;;;;18.38;15.50;;;10.50;99.90;;;;;;4998536;28;20058;-84
2023/04/22 05:59:20;;;;;;;17.55;15.02;;;10.60;99.90;;;;;;4975592;28;20045;-84
2023/04/22 06:01:46;;;;;;;17.90;15.40;;;10.60;99.90;;;;;;4982092;28;20088;-83
2023/04/22 06:04:12;;;;;;;18.25;16.08;;;10.60;99.90;;;;;;4998389;28;20045;-83
2023/04/22 06:06:38;;;;;;;17.13;15.32;;;10.60;99.90;;;;;;4982177;28;20394;-83
2023/04/22 06:09:03;;;;;;;19.27;16.60;;;10.30;99.90;;;;;;4966014;28;20054;-83
2023/04/22 06:11:29;;;;;;;19.02;15.82;;;10.80;99.90;;;;;;4997972;28;20049;-83
2023/04/22 06:13:55;;;;;;;17.88;15.93;;;10.80;99.90;;;;;;4981603;28;20394;-83
2023/04/22 06:16:23;;;;;;;16.60;14.73;;;10.90;99.90;;;;;;4998064;28;20054;-84
2023/04/22 06:18:49;;;;;;;16.70;14.57;;;11.00;99.90;;;;;;4981938;28;20046;-84
2023/04/22 06:21:15;;;;;;;16.33;14.63;;;11.10;99.90;;;;;;4949843;28;20129;-84
2023/04/22 06:23:44;;;;;;;16.10;14.43;;;11.10;99.90;;;;;;4982018;28;20082;-84
2023/04/22 06:26:11;;;;;;;18.38;15.10;;;11.10;99.90;;;;;;4981541;28;20124;-83
2023/04/22 06:28:37;;;;;;;18.10;16.13;;;11.20;99.90;;;;;;4997558;28;20054;-84
2023/04/22 06:31:02;;;;;;;18.20;15.60;;;11.20;99.90;;;;;;5009305;28;20053;-84
2023/04/22 06:33:28;;;;;;;17.38;15.25;;;11.30;99.90;;;;;;5017534;28;20469;-83
2023/04/22 06:35:54;;;;;;;16.73;15.02;;;11.30;99.90;;;;;;5000667;28;20045;-83
2023/04/22 06:38:20;;;;;;;17.90;15.40;;;11.30;99.90;;;;;;5000819;28;20102;-82
2023/04/22 06:40:45;;;;;;;17.65;15.75;;;11.30;99.90;;;;;;5017144;28;20115;-83
2023/04/22 06:43:14;;;;;;;17.42;15.52;;;11.30;99.90;;;;;;5001234;28;20057;-83
2023/04/22 06:45:41;;;;;;;17.65;15.65;;;11.40;99.90;;;;;;5000513;28;20405;-83
2023/04/22 06:48:06;;;;;;;16.35;14.50;;;11.40;99.90;;;;;;5016945;28;20497;-83
2023/04/22 06:50:32;;;;;;;18.00;14.65;;;11.50;99.90;;;;;;5016855;28;20077;-83
2023/04/22 06:52:58;;;;;;;15.70;13.75;;;11.60;99.90;;;;;;5000756;28;20148;-83
2023/04/22 06:55:24;;;;;;;17.67;14.75;;;11.70;99.90;;;;;;5016720;28;20504;-84
2023/04/22 06:57:50;;;;;;;16.00;14.30;;;11.80;99.90;;;;;;5000720;28;20100;-84
2023/04/22 07:00:19;;;;;;;18.50;14.48;;;11.80;99.90;;;;;;5016951;28;20050;-84
2023/04/22 07:02:45;;;;;;;15.60;13.95;;;11.90;99.90;;;;;;5016434;28;20068;-83
2023/04/22 07:05:11;;;;;;;16.65;14.85;;;11.90;99.90;;;;;;5000125;28;20056;-83
2023/04/22 07:07:37;;;;;;;17.27;13.98;;;12.00;99.90;;;;;;4984426;28;20502;-83
2023/04/22 07:10:03;;;;;;;16.98;13.75;;;12.10;99.90;;;;;;5016309;28;20045;-83
2023/04/22 07:12:29;;;;;;;15.05;13.45;;;12.10;99.90;;;;;;4984459;28;20045;-83
2023/04/22 07:14:55;;;;;;;15.30;13.05;;;12.10;99.90;;;;;;5000287;28;20048;-83
2023/04/22 07:17:21;;;;;;;14.30;12.60;;;12.20;99.90;;;;;;4967803;28;20045;-83
2023/04/22 07:19:47;;;;;;;14.95;13.18;;;12.20;99.90;;;;;;5000059;28;20553;-83
2023/04/22 07:22:13;;;;;;;14.05;12.35;;;12.50;99.90;;;;;;5016198;28;20489;-83
2023/04/22 07:24:39;;;;;;;14.88;13.07;;;12.40;99.90;;;;;;5000046;28;20103;-83
2023/04/22 07:27:05;;;;;;;16.25;13.68;;;12.40;99.90;;;;;;5016504;28;20464;-83
2023/04/22 07:29:32;;;;;;;19.05;15.20;;;12.50;99.90;;;;;;4983979;28;20093;-83
2023/04/22 07:31:57;;;;;;;15.75;13.40;;;12.50;99.90;;;;;;5033940;28;20059;-84
2023/04/22 07:34:23;;;;;;;15.88;13.38;;;12.60;99.90;;;;;;4999858;28;20132;-83
2023/04/22 07:36:51;;;;;;;14.70;12.68;;;12.70;99.90;;;;;;5000056;28;20037;-83
2023/04/22 07:39:17;;;;;;;14.68;12.77;;;12.80;99.90;;;;;;5015780;28;20050;-84
2023/04/22 07:41:42;;;;;;;15.70;13.05;;;12.90;99.90;;;;;;5000073;28;20045;-83
2023/04/22 07:44:10;;;;;;;15.95;13.23;;;12.80;99.90;;;;;;4999878;28;20103;-83
2023/04/22 07:46:35;;;;;;;18.27;13.00;;;13.00;99.90;;;;;;5016169;28;20068;-84
2023/04/22 07:49:01;;;;;;;16.10;14.00;;;13.10;99.90;;;;;;4983291;28;20049;-84
2023/04/22 07:51:27;;;;;;;15.45;13.60;;;13.20;99.90;;;;;;4983410;28;20045;-83
2023/04/22 07:53:53;;;;;;;15.13;13.52;;;13.30;99.90;;;;;;5016260;28;20179;-83
2023/04/22 07:56:19;;;;;;;15.02;13.43;;;13.30;99.90;;;;;;5016166;28;20468;-83
2023/04/22 07:58:44;;;;;;;14.65;12.82;;;13.40;99.90;;;;;;4999209;28;20061;-83
2023/04/22 08:01:10;;;;;;;15.65;13.20;;;13.50;99.90;;;;;;4999116;28;20064;-83
2023/04/22 08:03:36;;;;;;;14.00;12.50;;;13.60;99.90;;;;;;4983139;28;20049;-84
2023/04/22 08:06:02;;;;;;;14.23;12.18;;;13.00;99.90;;;;;;5015714;28;20100;-83
2023/04/22 08:08:28;;;;;;;14.75;12.10;;;13.80;99.90;;;;;;5016061;28;20050;-83
2023/04/22 08:10:53;;;;;;;13.32;10.93;;;14.00;99.90;;;;;;4999305;28;20049;-82
2023/04/22 08:13:19;;;;;;;12.75;11.38;;;14.10;99.90;;;;;;4999569;28;20051;-83
2023/04/22 08:15:45;;;;;;;13.30;11.20;;;14.20;99.90;;;;;;4999227;28;20091;-82
2023/04/22 08:18:10;;;;;;;12.98;10.40;;;14.40;99.90;;;;;;5015801;28;20052;-82
2023/04/22 08:20:36;;;;;;;15.15;9.82;;;14.50;99.90;;;;;;4999406;28;20090;-82
2023/04/22 08:23:02;;;;;;;11.52;9.88;;;14.70;99.90;;;;;;5015689;28;20049;-83
2023/04/22 08:25:31;;;;;;;14.85;10.45;;;15.60;99.90;;;;;;4999383;28;20428;-82
2023/04/22 08:27:56;;;;;;;12.45;10.15;;;15.10;99.90;;;;;;5015864;28;20049;-82
2023/04/22 08:30:22;;;;;;;12.35;10.55;;;15.30;99.90;;;;;;4982889;28;20489;-82
2023/04/22 08:32:48;;;;;;;11.95;10.02;;;15.40;99.90;;;;;;5015840;28;20061;-82
2023/04/22 08:35:14;;;;;;;12.30;9.15;;;15.50;99.90;;;;;;5015725;28;20056;-82
2023/04/22 08:37:41;;;;;;;10.75;9.27;;;15.70;99.90;;;;;;4998997;28;20100;-83
2023/04/22 08:40:07;;;;;;;11.82;9.70;;;15.80;99.90;;;;;;5015577;28;20049;-82
2023/04/22 08:42:33;;;;;;;11.30;9.10;;;16.00;99.90;;;;;;5015678;28;20504;-82
2023/04/22 08:45:01;;;;;;;10.93;8.93;;;16.20;99.90;;;;;;4999139;28;20451;-83
2023/04/22 08:47:27;;;;;;;9.43;7.22;;;16.30;99.90;;;;;;4999130;28;20049;-83
2023/04/22 08:49:55;;;;;;;11.48;8.10;;;16.50;99.90;;;;;;5016109;28;20507;-81
2023/04/22 08:52:21;;;;;;;12.00;7.60;;;16.80;99.90;;;;;;5019356;28;20132;-82
2023/04/22 08:54:46;;;;;;;12.30;8.40;;;17.00;99.90;;;;;;5002924;28;20136;-82
2023/04/22 08:57:15;;;;;;;10.13;6.82;;;17.10;99.90;;;;;;4986620;28;20103;-82
2023/04/22 08:59:41;;;;;;;10.77;8.60;;;17.20;99.90;;;;;;5003042;28;20091;-83
2023/04/22 09:02:15;;;;;;;10.43;8.07;;;17.30;99.90;;;;;;5002896;28;20401;-82
2023/04/22 09:04:42;;;;;;;9.02;6.18;;;17.50;99.90;;;;;;5019056;28;20041;-83
2023/04/22 09:07:09;;;;;;;11.00;6.78;;;17.60;99.90;;;;;;5002766;28;20049;-83
2023/04/22 09:09:35;;;;;;;10.38;6.90;;;17.70;99.90;;;;;;5018529;28;20054;-83
2023/04/22 09:12:01;;;;;;;9.77;7.53;;;17.70;99.90;;;;;;5002655;28;20053;-84
2023/04/22 09:14:27;;;;;;;9.43;7.40;;;17.80;99.90;;;;;;5018815;28;20481;-84
2023/04/22 09:16:56;;;;;;;9.68;7.68;;;18.00;99.90;;;;;;5002483;28;20489;-83
2023/04/22 09:19:24;;;;;;;9.23;6.60;;;18.10;99.90;;;;;;5002275;28;20184;-83
2023/04/22 09:21:50;;;;;;;9.50;7.20;;;18.30;99.90;;;;;;5002664;28;20060;-84
2023/04/22 09:24:16;;;;;;;9.30;7.78;;;18.30;99.90;;;;;;5018777;28;20041;-84
2023/04/22 09:26:42;;;;;;;10.90;7.55;;;18.40;99.90;;;;;;5018594;28;20057;-85
2023/04/22 09:29:13;;;;;;;10.82;7.30;;;18.60;99.90;;;;;;5002298;28;20507;-85
2023/04/22 09:31:39;;;;;;;9.23;6.80;;;18.80;99.90;;;;;;4990716;28;20146;-85
2023/04/22 09:34:05;;;;;;;8.20;5.78;;;18.90;99.90;;;;;;4998393;28;20085;-85
2023/04/22 09:36:39;;;;;;;10.73;7.05;;;18.80;99.90;;;;;;4998878;28;20057;-85
2023/04/22 09:39:07;;;;;;;8.40;6.80;;;18.80;99.90;;;;;;4982714;28;20149;-84
2023/04/22 09:41:34;;;;;;;8.93;7.03;;;18.90;99.90;;;;;;4982233;28;20509;-85
2023/04/22 09:44:02;;;;;;;8.48;6.50;;;19.00;99.90;;;;;;4998758;28;20065;-84
2023/04/22 09:46:30;;;;;;;9.25;6.80;;;19.10;99.90;;;;;;4998540;28;20054;-85
2023/04/22 09:48:57;;;;;;;8.40;6.40;;;19.10;99.90;;;;;;4998543;28;20053;-85
2023/04/22 09:51:24;;;;;;;9.43;7.15;;;19.00;99.90;;;;;;4998177;28;20375;-85
2023/04/22 09:53:58;;;;;;;8.07;5.88;;;19.00;99.90;;;;;;4998033;28;20092;-85
2023/04/22 09:56:47;;;;;;;8.27;5.70;;;19.10;99.90;;;;;;4998084;28;20050;-86
2023/04/22 09:59:24;;;;;;;7.25;5.43;;;19.20;97.70;;;;;;4998350;28;20402;-86
2023/04/22 10:01:52;;;;;;;7.78;5.55;;;19.30;99.60;;;;;;4983045;28;20049;-87
2023/04/22 10:04:24;;;;;;;9.63;4.90;;;19.40;98.40;;;;;;4997491;28;20045;-86
2023/04/22 10:06:50;;;;;;;6.40;4.18;;;19.40;97.30;;;;;;4998195;28;20050;-86
2023/04/22 10:09:19;;;;;;;7.70;5.13;;;19.30;95.90;;;;;;4982323;28;20053;-87
2023/04/22 10:11:45;;;;;;;6.97;3.97;;;19.50;98.80;;;;;;4981713;28;20097;-86
2023/04/22 10:14:13;;;;;;;6.95;4.50;;;19.60;94.10;;;;;;4997903;28;20050;-87
2023/04/22 10:16:42;;;;;;;7.13;4.10;;;19.70;95.90;;;;;;4981895;28;20103;-87
2023/04/22 10:19:13;;;;;;;7.60;4.30;;;19.70;95.00;;;;;;4998192;28;20441;-87
2023/04/22 10:21:43;;;;;;;7.10;4.87;;;19.70;95.10;;;;;;4981828;28;20089;-86
2023/04/22 10:24:18;;;;;;;7.28;4.65;;;19.70;94.50;;;;;;4997938;28;20049;-88
2023/04/22 10:26:58;;;;;;;7.90;4.57;;;19.80;95.60;;;;;;4997949;28;20050;-88
2023/04/22 10:29:29;;;;;;;7.30;5.10;;;19.90;93.80;;;;;;4997593;28;20089;-87
2023/04/22 10:32:23;;;;;;;7.93;4.33;;;20.00;96.80;;;;;;4997526;28;20054;-88
2023/04/22 10:34:49;;;;;;;7.75;5.30;;;20.10;94.30;;;;;;4997864;28;20382;-87
2023/04/22 10:37:20;;;;;;;7.40;5.40;;;20.10;95.50;;;;;;4997769;28;20128;-87
2023/04/22 10:40:07;;;;;;;7.60;5.40;;;20.10;96.30;;;;;;4997534;28;20478;-87
2023/04/22 10:42:33;;;;;;;7.80;5.10;;;20.20;95.70;;;;;;4981449;28;20054;-89
2023/04/22 10:45:02;;;;;;;8.23;5.75;;;20.40;95.90;;;;;;4997629;28;20061;-88
2023/04/22 10:47:36;;;;;;;8.35;6.30;;;20.60;94.00;;;;;;4997535;28;20048;-88
2023/04/22 10:50:25;;;;;;;8.90;6.00;;;20.60;93.40;;;;;;4997538;28;20038;-87
2023/04/22 10:52:56;;;;;;;8.50;6.05;;;20.70;93.70;;;;;;4997440;28;20046;-88
2023/04/22 10:55:23;;;;;;;8.57;6.05;;;20.70;93.50;;;;;;4997417;28;20132;-88
2023/04/22 10:57:53;;;;;;;11.18;5.65;;;20.70;93.20;;;;;;4997250;28;20370;-87
2023/04/22 11:00:19;;;;;;;9.32;6.28;;;20.70;93.30;;;;;;4997085;28;20052;-87
2023/04/22 11:02:54;;;;;;;8.93;6.45;;;20.70;92.70;;;;;;4981065;28;20046;-88
2023/04/22 11:05:25;;;;;;;9.27;6.38;;;20.70;93.10;;;;;;4981002;28;20053;-87
2023/04/22 11:08:00;;;;;;;7.10;5.38;;;20.80;94.70;;;;;;4997067;28;20057;-87
2023/04/22 11:10:33;;;;;;;8.18;6.43;;;21.00;94.60;;;;;;4965313;28;20046;-87
2023/04/22 11:13:01;;;;;;;7.65;5.70;;;21.10;92.30;;;;;;4980300;28;20042;-87
2023/04/22 11:15:28;;;;;;;7.28;5.32;;;21.20;90.80;;;;;;4996747;28;20057;-88
2023/04/22 11:17:54;;;;;;;8.80;5.80;;;21.20;91.60;;;;;;4980623;28;20046;-87
2023/04/22 11:20:21;;;;;;;7.75;5.55;;;21.40;94.00;;;;;;4996640;28;20042;-86
2023/04/22 11:22:52;;;;;;;8.13;6.38;;;21.60;91.50;;;;;;4980755;28;20426;-87
2023/04/22 11:25:19;;;;;;;8.48;6.13;;;21.70;92.20;;;;;;4996972;28;20052;-89
2023/04/22 11:27:45;;;;;;;9.25;5.68;;;21.70;90.40;;;;;;4980703;28;20056;-87
2023/04/22 11:30:16;;;;;;;10.07;5.80;;;21.70;90.20;;;;;;4980494;28;20048;-88
2023/04/22 11:32:44;;;;;;;8.17;6.70;;;21.70;88.70;;;;;;4996003;28;20088;-86
2023/04/22 11:35:12;;;;;;;9.20;6.70;;;21.50;91.00;;;;;;4996768;28;20429;-86
2023/04/22 11:37:47;;;;;;;9.52;6.68;;;21.50;91.30;;;;;;4980037;28;20049;-87
2023/04/22 11:40:18;;;;;;;8.73;6.38;;;21.60;91.30;;;;;;4996602;28;20093;-87
2023/04/22 11:42:44;;;;;;;30.35;6.97;;;21.60;90.00;;;;;;4996153;28;20112;-86
2023/04/22 11:45:12;;;;;;;10.30;6.30;;;21.50;90.20;;;;;;4980419;28;20137;-87
2023/04/22 11:47:39;;;;;;;8.25;6.05;;;21.40;90.50;;;;;;5013843;28;20068;-86
2023/04/22 11:50:08;;;;;;;9.88;6.90;;;21.40;92.20;;;;;;4996402;28;20132;-86
2023/04/22 11:52:44;;;;;;;9.15;6.70;;;21.40;92.50;;;;;;4996437;28;20056;-87
2023/04/22 11:55:22;;;;;;;9.43;6.88;;;21.30;91.30;;;;;;4996559;28;20081;-86
2023/04/22 11:57:55;;;;;;;9.43;6.82;;;21.00;89.50;;;;;;4996276;28;20426;-87
2023/04/22 12:00:21;;;;;;;8.65;6.32;;;20.80;91.30;;;;;;4996142;28;20137;-86
2023/04/22 12:02:56;;;;;;;8.98;6.30;;;20.60;92.20;;;;;;4980169;28;20048;-85
2023/04/22 12:05:35;;;;;;;9.40;6.53;;;20.70;92.00;;;;;;4996259;28;20415;-86
2023/04/22 12:08:02;;;;;;;7.55;6.28;;;21.00;93.90;;;;;;4980189;28;20048;-85
2023/04/22 12:10:29;;;;;;;10.10;6.20;;;21.40;95.00;;;;;;4995729;28;20050;-86
2023/04/22 12:12:54;;;;;;;11.82;6.95;;;21.70;90.60;;;;;;4963642;28;20050;-85
2023/04/22 12:15:20;;;;;;;9.20;7.05;;;21.60;90.20;;;;;;4980209;28;20132;-85
2023/04/22 12:17:49;;;;;;;6.68;3.63;;;21.40;90.00;;;;;;4996155;28;20049;-85
2023/04/22 12:20:15;;;;;;;7.88;5.07;;;21.30;90.50;;;;;;4980176;28;20088;-87
2023/04/22 12:22:41;;;;;;;9.02;6.63;;;21.10;90.70;;;;;;4995872;28;20057;-85
2023/04/22 12:25:09;;;;;;;10.45;7.60;;;20.90;91.60;;;;;;4980895;28;20038;-87
2023/04/22 12:27:35;;;;;;;9.27;7.05;;;20.70;92.70;;;;;;5000103;28;20120;-86
2023/04/22 12:30:02;;;;;;;8.80;7.45;;;20.60;93.90;;;;;;4983907;28;20401;-86
2023/04/22 12:32:28;;;;;;;8.40;6.80;;;20.60;95.30;;;;;;4999544;28;20133;-86
2023/04/22 12:34:55;;;;;;;9.45;6.60;;;20.70;91.90;;;;;;4983408;28;20188;-86